createdAt,value
2022-10-17T00:01:11.226Z,6.37
2022-10-17T00:03:40.301Z,6.33
2022-10-17T00:06:11.230Z,6.31
2022-10-17T00:08:41.110Z,6.30
2022-10-17T00:11:14.947Z,6.29
2022-10-17T00:13:42.996Z,6.29
2022-10-17T00:16:11.460Z,6.29
2022-10-17T00:18:39.750Z,6.29
2022-10-17T00:21:16.361Z,6.31
2022-10-17T00:23:44.941Z,6.33
2022-10-17T00:26:13.923Z,6.33
2022-10-17T00:28:41.957Z,6.33
2022-10-17T00:31:11.869Z,6.33
2022-10-17T00:33:40.043Z,6.30
2022-10-17T00:36:13.646Z,6.26
2022-10-17T00:38:44.214Z,6.20
2022-10-17T00:41:15.433Z,6.12
2022-10-17T00:44:02.485Z,6.02
2022-10-17T00:46:35.984Z,5.92
2022-10-17T00:49:09.739Z,5.85
2022-10-17T00:51:43.378Z,5.82
2022-10-17T00:54:15.104Z,5.79
2022-10-17T00:56:46.949Z,5.77
2022-10-17T00:59:17.759Z,5.75
2022-10-17T01:01:57.064Z,5.74
2022-10-17T01:04:24.886Z,5.74
2022-10-17T01:06:54.001Z,5.74
2022-10-17T01:09:22.564Z,5.76
2022-10-17T01:11:50.904Z,5.77
2022-10-17T01:14:40.643Z,5.77
2022-10-17T01:17:41.122Z,5.78
2022-10-17T01:20:24.316Z,5.75
2022-10-17T01:23:19.401Z,5.75
2022-10-17T01:26:21.588Z,5.75
2022-10-17T01:29:04.978Z,5.72
2022-10-17T01:31:44.101Z,5.69
2022-10-17T01:34:26.337Z,5.64
2022-10-17T01:36:57.252Z,5.57
2022-10-17T01:39:56.700Z,5.50
2022-10-17T01:42:52.002Z,5.39
2022-10-17T01:45:28.644Z,5.31
2022-10-17T01:48:00.600Z,5.28
2022-10-17T01:50:36.308Z,5.26
2022-10-17T01:53:22.660Z,5.26
2022-10-17T01:55:55.529Z,5.26
2022-10-17T01:58:33.800Z,5.26
2022-10-17T02:01:06.490Z,5.26
2022-10-17T02:03:35.800Z,5.28
2022-10-17T02:06:06.993Z,5.30
2022-10-17T02:08:48.242Z,5.32
2022-10-17T02:11:18.570Z,5.35
2022-10-17T02:14:23.049Z,5.36
2022-10-17T02:17:21.635Z,5.35
2022-10-17T02:20:08.755Z,5.35
2022-10-17T02:23:09.661Z,5.35
2022-10-17T02:25:43.693Z,5.35
2022-10-17T02:28:29.610Z,5.32
2022-10-17T02:31:01.459Z,5.28
2022-10-17T02:33:58.784Z,5.23
2022-10-17T02:36:41.854Z,5.14
2022-10-17T02:39:13.776Z,5.04
2022-10-17T02:41:43.706Z,4.97
2022-10-17T02:44:13.315Z,4.90
2022-10-17T02:46:43.159Z,4.84
2022-10-17T02:49:30.048Z,4.80
2022-10-17T02:52:42.836Z,4.78
2022-10-17T02:55:20.846Z,4.78
2022-10-17T02:57:54.918Z,4.78
2022-10-17T03:00:25.241Z,4.80
2022-10-17T03:02:54.687Z,4.80
2022-10-17T03:05:25.861Z,4.81
2022-10-17T03:07:54.990Z,4.83
2022-10-17T03:10:26.151Z,4.85
2022-10-17T03:12:56.204Z,4.86
2022-10-17T03:15:25.017Z,4.89
2022-10-17T03:17:53.443Z,4.92
2022-10-17T03:20:21.797Z,4.93
2022-10-17T03:22:51.505Z,4.94
2022-10-17T03:25:20.266Z,4.95
2022-10-17T03:27:49.102Z,4.98
2022-10-17T03:30:17.464Z,4.99
2022-10-17T03:32:46.289Z,5.01
2022-10-17T03:35:14.938Z,5.01
2022-10-17T03:37:46.267Z,4.97
2022-10-17T03:40:16.036Z,4.92
2022-10-17T03:42:45.203Z,4.86
2022-10-17T03:45:13.603Z,4.79
2022-10-17T03:47:43.188Z,4.72
2022-10-17T03:50:11.607Z,4.67
2022-10-17T03:52:40.660Z,4.62
2022-10-17T03:55:10.463Z,4.55
2022-10-17T03:57:41.142Z,4.48
2022-10-17T04:00:13.299Z,4.43
2022-10-17T04:02:52.418Z,4.40
2022-10-17T04:05:21.377Z,4.38
2022-10-17T04:07:52.900Z,4.36
2022-10-17T04:10:24.613Z,4.35
2022-10-17T04:12:52.967Z,4.33
2022-10-17T04:15:21.148Z,4.33
2022-10-17T04:17:49.166Z,4.34
2022-10-17T04:20:18.151Z,4.36
2022-10-17T04:22:46.492Z,4.35
2022-10-17T04:25:15.640Z,4.34
2022-10-17T04:27:47.001Z,4.31
2022-10-17T04:30:15.335Z,4.29
2022-10-17T04:32:44.324Z,4.27
2022-10-17T04:35:22.041Z,4.27
2022-10-17T04:37:55.461Z,4.27
2022-10-17T04:40:23.667Z,4.27
2022-10-17T04:42:53.764Z,4.25
2022-10-17T04:45:23.936Z,4.24
2022-10-17T04:47:54.133Z,4.24
2022-10-17T04:50:22.181Z,4.22
2022-10-17T04:53:06.360Z,4.22
2022-10-17T04:55:38.182Z,4.22
2022-10-17T04:58:06.275Z,4.22
2022-10-17T05:00:34.692Z,4.21
2022-10-17T05:03:11.330Z,4.19
2022-10-17T05:05:40.994Z,4.17
2022-10-17T05:08:11.586Z,4.16
2022-10-17T05:10:43.214Z,4.14
2022-10-17T05:13:12.266Z,4.16
2022-10-17T05:15:42.163Z,4.17
2022-10-17T05:18:11.309Z,4.27
2022-10-17T05:20:39.571Z,4.50
2022-10-17T05:23:08.089Z,4.84
2022-10-17T05:25:40.361Z,5.21
2022-10-17T05:28:08.498Z,5.60
2022-10-17T05:30:37.830Z,5.99
2022-10-17T05:33:09.266Z,6.36
2022-10-17T05:35:39.043Z,6.72
2022-10-17T05:38:07.257Z,7.08
2022-10-17T05:40:35.914Z,7.37
2022-10-17T05:43:04.206Z,7.52
2022-10-17T05:45:32.736Z,7.63
2022-10-17T05:48:01.829Z,7.62
2022-10-17T05:50:30.423Z,7.55
2022-10-17T05:53:06.204Z,7.55
2022-10-17T05:55:39.112Z,7.65
2022-10-17T05:58:09.767Z,7.94
2022-10-17T06:00:43.504Z,8.31
2022-10-17T06:03:12.682Z,8.57
2022-10-17T06:05:41.210Z,8.81
2022-10-17T06:08:09.502Z,9.06
2022-10-17T06:10:39.017Z,9.22
2022-10-17T06:13:07.646Z,9.42
2022-10-17T06:15:36.223Z,9.69
2022-10-17T06:18:08.240Z,9.83
2022-10-17T06:20:37.445Z,9.96
2022-10-17T06:23:06.430Z,10.17
2022-10-17T06:25:50.241Z,10.36
2022-10-17T06:28:18.776Z,10.50
2022-10-17T06:30:47.436Z,10.73
2022-10-17T06:33:16.901Z,10.98
2022-10-17T06:35:51.913Z,11.19
2022-10-17T06:38:20.963Z,11.29
2022-10-17T06:40:52.205Z,11.24
2022-10-17T06:43:26.999Z,11.33
2022-10-17T06:46:22.328Z,11.61
2022-10-17T06:48:57.560Z,11.81
2022-10-17T06:51:44.915Z,11.94
2022-10-17T06:54:16.296Z,12.03
2022-10-17T06:56:45.408Z,12.14
2022-10-17T06:59:34.425Z,12.21
2022-10-17T07:02:13.015Z,12.23
2022-10-17T07:04:42.091Z,12.22
2022-10-17T07:07:14.469Z,12.29
2022-10-17T07:09:43.907Z,12.37
2022-10-17T07:12:14.392Z,12.56
2022-10-17T07:14:47.899Z,12.68
2022-10-17T07:17:17.674Z,12.73
2022-10-17T07:19:47.039Z,12.90
2022-10-17T07:22:15.672Z,12.96
2022-10-17T07:27:29.445Z,12.61
2022-10-17T07:29:59.186Z,12.33
2022-10-17T07:32:42.809Z,12.27
2022-10-17T07:35:12.803Z,12.31
2022-10-17T07:37:42.709Z,12.21
2022-10-17T07:40:11.441Z,11.95
2022-10-17T07:45:16.045Z,11.27
2022-10-17T07:47:46.202Z,10.97
2022-10-17T07:50:18.080Z,10.74
2022-10-17T07:52:47.699Z,10.67
2022-10-17T07:55:18.568Z,10.59
2022-10-17T07:57:48.584Z,10.53
2022-10-17T08:00:16.965Z,10.50
2022-10-17T08:02:46.032Z,10.45
2022-10-17T08:05:15.253Z,10.41
2022-10-17T08:07:43.955Z,10.40
2022-10-17T08:10:14.926Z,10.41
2022-10-17T08:12:44.087Z,10.46
2022-10-17T08:15:13.915Z,10.45
2022-10-17T08:17:43.324Z,10.48
2022-10-17T08:20:12.673Z,10.60
2022-10-17T08:22:41.593Z,10.75
2022-10-17T08:25:11.011Z,10.82
2022-10-17T08:27:40.451Z,10.77
2022-10-17T08:30:10.598Z,10.76
2022-10-17T08:32:39.598Z,10.83
2022-10-17T08:35:09.167Z,10.87
2022-10-17T08:37:38.059Z,10.91
2022-10-17T08:40:08.083Z,10.93
2022-10-17T08:42:51.627Z,10.91
2022-10-17T08:46:01.054Z,10.89
2022-10-17T08:48:44.053Z,11.00
2022-10-17T08:51:21.344Z,11.11
2022-10-17T08:53:55.145Z,11.24
2022-10-17T08:56:49.560Z,11.31
2022-10-17T08:59:26.084Z,11.32
2022-10-17T09:02:02.532Z,11.35
2022-10-17T09:05:02.035Z,11.36
2022-10-17T09:08:10.067Z,11.40
2022-10-17T09:10:53.512Z,11.48
2022-10-17T09:13:34.084Z,11.56
2022-10-17T09:16:13.965Z,11.67
2022-10-17T09:18:53.701Z,11.82
2022-10-17T09:21:55.028Z,11.94
2022-10-17T09:24:53.866Z,12.08
2022-10-17T09:27:42.761Z,12.19
2022-10-17T09:30:51.027Z,12.27
2022-10-17T09:33:42.183Z,12.44
2022-10-17T09:36:19.230Z,12.55
2022-10-17T09:39:00.561Z,12.58
2022-10-17T09:41:48.577Z,12.69
2022-10-17T09:44:28.160Z,12.85
2022-10-17T09:47:06.667Z,13.03
2022-10-17T09:49:41.567Z,13.15
2022-10-17T09:52:20.518Z,13.24
2022-10-17T09:54:52.769Z,13.31
2022-10-17T09:57:23.049Z,13.36
2022-10-17T10:00:05.017Z,13.42
2022-10-17T10:02:43.324Z,13.57
2022-10-17T10:05:20.870Z,13.76
2022-10-17T10:08:03.970Z,13.91
2022-10-17T10:10:33.502Z,14.01
2022-10-17T10:13:26.197Z,14.11
2022-10-17T10:16:15.538Z,14.23
2022-10-17T10:18:45.475Z,14.31
2022-10-17T10:21:22.517Z,14.42
2022-10-17T10:24:03.545Z,14.56
2022-10-17T10:26:46.194Z,14.69
2022-10-17T10:29:37.064Z,14.78
2022-10-17T10:32:30.112Z,14.84
2022-10-17T10:35:03.922Z,14.93
2022-10-17T10:37:43.835Z,15.01
2022-10-17T10:40:28.444Z,15.07
2022-10-17T10:43:04.871Z,15.12
2022-10-17T10:45:52.566Z,15.19
2022-10-17T10:48:27.444Z,15.27
2022-10-17T10:51:05.916Z,15.39
2022-10-17T10:53:39.238Z,15.45
2022-10-17T10:56:23.181Z,15.53
2022-10-17T10:59:05.497Z,15.62
2022-10-17T11:01:53.347Z,15.70
2022-10-17T11:04:44.909Z,15.81
2022-10-17T11:07:16.487Z,15.97
2022-10-17T11:09:58.880Z,16.07
2022-10-17T11:12:31.282Z,16.16
2022-10-17T11:15:21.252Z,16.27
2022-10-17T11:18:00.062Z,16.42
2022-10-17T11:21:01.006Z,16.55
2022-10-17T11:24:05.530Z,16.62
2022-10-17T11:26:41.674Z,16.65
2022-10-17T11:29:13.738Z,16.69
2022-10-17T11:31:48.462Z,16.70
2022-10-17T11:34:24.498Z,16.72
2022-10-17T11:36:59.023Z,16.79
2022-10-17T11:39:48.849Z,16.89
2022-10-17T11:42:38.192Z,16.98
2022-10-17T11:45:14.497Z,17.04
2022-10-17T11:47:48.901Z,17.10
2022-10-17T11:53:26.262Z,17.18
2022-10-17T11:55:58.036Z,17.24
2022-10-17T11:58:53.669Z,17.32
2022-10-17T12:01:58.331Z,17.40
2022-10-17T12:04:38.472Z,17.49
2022-10-17T12:07:21.158Z,17.60
2022-10-17T12:10:25.476Z,17.68
2022-10-17T12:12:54.214Z,17.80
2022-10-17T12:15:26.586Z,17.87
2022-10-17T12:18:02.991Z,17.92
2022-10-17T12:20:39.269Z,17.96
2022-10-17T12:23:11.653Z,17.95
2022-10-17T12:25:57.082Z,18.00
2022-10-17T12:28:31.970Z,18.03
2022-10-17T12:31:05.950Z,18.04
2022-10-17T12:33:39.317Z,18.05
2022-10-17T12:36:17.387Z,18.07
2022-10-17T12:38:49.934Z,18.09
2022-10-17T12:41:38.426Z,18.12
2022-10-17T12:44:13.501Z,18.15
2022-10-17T12:46:48.551Z,18.15
2022-10-17T12:49:22.311Z,18.16
2022-10-17T12:52:06.331Z,18.16
2022-10-17T12:54:47.954Z,18.20
2022-10-17T12:57:40.793Z,18.24
2022-10-17T13:00:31.011Z,18.27
2022-10-17T13:03:17.868Z,18.29
2022-10-17T13:05:54.011Z,18.32
2022-10-17T13:08:28.501Z,18.35
2022-10-17T13:10:58.073Z,18.37
2022-10-17T13:13:43.742Z,18.37
2022-10-17T13:16:34.034Z,18.36
2022-10-17T13:19:12.529Z,18.37
2022-10-17T13:21:56.119Z,18.36
2022-10-17T13:24:36.024Z,18.34
2022-10-17T13:27:06.370Z,18.30
2022-10-17T13:29:34.784Z,18.27
2022-10-17T13:32:05.758Z,18.26
2022-10-17T13:34:34.517Z,18.26
2022-10-17T13:37:10.784Z,18.26
2022-10-17T13:39:54.861Z,18.27
2022-10-17T13:42:28.112Z,18.28
2022-10-17T13:44:59.891Z,18.28
2022-10-17T13:47:34.194Z,18.29
2022-10-17T13:50:03.250Z,18.26
2022-10-17T13:52:32.626Z,18.25
2022-10-17T13:55:17.501Z,18.24
2022-10-17T13:57:47.470Z,18.23
2022-10-17T14:00:22.473Z,18.22
2022-10-17T14:02:51.706Z,18.21
2022-10-17T14:05:23.859Z,18.17
2022-10-17T14:08:11.927Z,18.14
2022-10-17T14:10:44.306Z,18.12
2022-10-17T14:13:44.577Z,18.10
2022-10-17T14:16:12.980Z,18.07
2022-10-17T14:18:44.628Z,18.05
2022-10-17T14:21:43.941Z,18.02
2022-10-17T14:24:23.673Z,17.98
2022-10-17T14:26:59.562Z,17.94
2022-10-17T14:29:31.860Z,17.91
2022-10-17T14:32:11.044Z,17.86
2022-10-17T14:34:40.849Z,17.81
2022-10-17T14:37:41.572Z,17.77
2022-10-17T14:40:25.833Z,17.73
2022-10-17T14:42:58.463Z,17.67
2022-10-17T14:45:29.957Z,17.61
2022-10-17T14:48:12.475Z,17.55
2022-10-17T14:50:42.413Z,17.51
2022-10-17T14:53:10.518Z,17.46
2022-10-17T14:55:56.551Z,17.42
2022-10-17T14:58:31.015Z,17.36
2022-10-17T15:01:02.011Z,17.30
2022-10-17T15:03:31.331Z,17.24
2022-10-17T15:06:20.568Z,17.19
2022-10-17T15:08:49.283Z,17.12
2022-10-17T15:11:18.858Z,17.05
2022-10-17T15:13:48.431Z,16.96
2022-10-17T15:16:24.354Z,16.88
2022-10-17T15:18:54.886Z,16.80
2022-10-17T15:21:37.325Z,16.70
2022-10-17T15:24:07.154Z,16.59
2022-10-17T15:26:35.492Z,16.50
2022-10-17T15:29:04.173Z,16.40
2022-10-17T15:31:32.560Z,16.30
2022-10-17T15:34:00.633Z,16.19
2022-10-17T15:36:30.204Z,16.07
2022-10-17T15:39:02.443Z,15.93
2022-10-17T15:41:32.035Z,15.77
2022-10-17T15:44:01.185Z,15.60
2022-10-17T15:46:34.754Z,15.44
2022-10-17T15:49:07.797Z,15.26
2022-10-17T15:51:37.683Z,15.10
2022-10-17T15:54:06.740Z,14.94
2022-10-17T15:56:39.775Z,14.78
2022-10-17T15:59:13.981Z,14.63
2022-10-17T16:01:42.911Z,14.48
2022-10-17T16:04:16.233Z,14.34
2022-10-17T16:06:45.019Z,14.19
2022-10-17T16:09:13.111Z,14.06
2022-10-17T16:11:43.918Z,13.93
2022-10-17T16:14:15.569Z,13.82
2022-10-17T16:16:44.918Z,13.71
2022-10-17T16:19:13.483Z,13.59
2022-10-17T16:21:42.252Z,13.48
2022-10-17T16:24:12.429Z,13.37
2022-10-17T16:26:40.811Z,13.25
2022-10-17T16:29:10.651Z,13.14
2022-10-17T16:31:44.897Z,13.04
2022-10-17T16:34:15.314Z,12.93
2022-10-17T16:36:43.517Z,12.82
2022-10-17T16:39:11.668Z,12.71
2022-10-17T16:41:39.874Z,12.61
2022-10-17T16:44:13.325Z,12.53
2022-10-17T16:46:41.594Z,12.46
2022-10-17T16:49:10.322Z,12.37
2022-10-17T16:51:38.522Z,12.34
2022-10-17T16:54:06.824Z,12.32
2022-10-17T16:56:34.898Z,12.31
2022-10-17T16:59:03.249Z,12.30
2022-10-17T17:01:31.803Z,12.31
2022-10-17T17:04:00.458Z,12.32
2022-10-17T17:06:30.424Z,12.32
2022-10-17T17:08:58.413Z,12.29
2022-10-17T17:11:27.929Z,12.24
2022-10-17T17:13:57.765Z,12.19
2022-10-17T17:16:27.712Z,12.13
2022-10-17T17:19:01.537Z,12.09
2022-10-17T17:21:31.779Z,12.04
2022-10-17T17:24:01.671Z,11.96
2022-10-17T17:26:32.618Z,11.88
2022-10-17T17:29:01.159Z,11.79
2022-10-17T17:31:32.055Z,11.70
2022-10-17T17:34:00.713Z,11.62
2022-10-17T17:36:32.761Z,11.55
2022-10-17T17:39:04.275Z,11.49
2022-10-17T17:41:33.469Z,11.44
2022-10-17T17:44:02.781Z,11.39
2022-10-17T17:46:31.313Z,11.36
2022-10-17T17:49:00.719Z,11.34
2022-10-17T17:51:29.425Z,11.33
2022-10-17T17:53:58.076Z,11.32
2022-10-17T17:56:29.544Z,11.31
2022-10-17T17:59:02.934Z,11.29
2022-10-17T18:01:36.907Z,11.27
2022-10-17T18:04:08.929Z,11.24
2022-10-17T18:06:38.985Z,11.21
2022-10-17T18:09:08.048Z,11.17
2022-10-17T18:11:37.478Z,11.10
2022-10-17T18:14:11.542Z,11.04
2022-10-17T18:16:39.704Z,10.97
2022-10-17T18:19:10.405Z,10.89
2022-10-17T18:21:39.035Z,10.82
2022-10-17T18:24:11.839Z,10.74
2022-10-17T18:26:40.042Z,10.65
2022-10-17T18:29:08.238Z,10.57
2022-10-17T18:31:36.488Z,10.51
2022-10-17T18:34:05.872Z,10.46
2022-10-17T18:36:35.354Z,10.43
2022-10-17T18:39:05.186Z,10.40
2022-10-17T18:41:34.317Z,10.38
2022-10-17T18:44:05.998Z,10.37
2022-10-17T18:46:40.863Z,10.36
2022-10-17T18:49:11.192Z,10.34
2022-10-17T18:51:40.271Z,10.33
2022-10-17T18:54:14.608Z,10.32
2022-10-17T18:56:44.121Z,10.30
2022-10-17T18:59:13.536Z,10.28
2022-10-17T19:01:43.693Z,10.25
2022-10-17T19:04:12.423Z,10.21
2022-10-17T19:06:41.463Z,10.16
2022-10-17T19:09:11.835Z,10.11
2022-10-17T19:11:42.430Z,10.05
2022-10-17T19:14:13.615Z,9.99
2022-10-17T19:16:46.189Z,9.91
2022-10-17T19:19:18.856Z,9.84
2022-10-17T19:21:47.110Z,9.78
2022-10-17T19:24:17.843Z,9.75
2022-10-17T19:26:47.379Z,9.72
2022-10-17T19:29:17.081Z,9.71
2022-10-17T19:31:46.572Z,9.70
2022-10-17T19:34:16.066Z,9.69
2022-10-17T19:36:45.749Z,9.70
2022-10-17T19:39:19.721Z,9.69
2022-10-17T19:41:48.841Z,9.69
2022-10-17T19:44:17.059Z,9.68
2022-10-17T19:46:47.164Z,9.66
2022-10-17T19:49:16.167Z,9.63
2022-10-17T19:51:45.534Z,9.60
2022-10-17T19:54:15.617Z,9.54
2022-10-17T19:56:44.337Z,9.49
2022-10-17T19:59:15.059Z,9.43
2022-10-17T20:01:43.857Z,9.36
2022-10-17T20:04:13.207Z,9.30
2022-10-17T20:06:41.808Z,9.24
2022-10-17T20:09:15.698Z,9.18
2022-10-17T20:11:45.767Z,9.15
2022-10-17T20:14:13.725Z,9.12
2022-10-17T20:16:44.903Z,9.10
2022-10-17T20:19:13.941Z,9.08
2022-10-17T20:21:44.185Z,9.07
2022-10-17T20:24:15.669Z,9.07
2022-10-17T20:26:44.929Z,9.05
2022-10-17T20:29:16.362Z,9.04
2022-10-17T20:31:46.237Z,9.04
2022-10-17T20:34:16.451Z,9.04
2022-10-17T20:36:44.935Z,9.02
2022-10-17T20:39:14.916Z,8.99
2022-10-17T20:41:44.213Z,8.94
2022-10-17T20:44:13.090Z,8.88
2022-10-17T20:46:48.722Z,8.82
2022-10-17T20:49:26.624Z,8.76
2022-10-17T20:51:54.875Z,8.69
2022-10-17T20:54:22.923Z,8.63
2022-10-17T20:56:51.038Z,8.59
2022-10-17T20:59:19.431Z,8.56
2022-10-17T21:01:48.105Z,8.53
2022-10-17T21:07:04.707Z,8.50
2022-10-17T21:09:33.435Z,8.50
2022-10-17T21:14:29.933Z,8.52
2022-10-17T21:17:01.040Z,8.52
2022-10-17T21:19:31.944Z,8.53
2022-10-17T21:22:00.098Z,8.52
2022-10-17T21:24:28.251Z,8.51
2022-10-17T21:26:57.796Z,8.48
2022-10-17T21:29:26.074Z,8.44
2022-10-17T21:31:53.966Z,8.40
2022-10-17T21:34:27.933Z,8.36
2022-10-17T21:36:55.991Z,8.32
2022-10-17T21:39:25.063Z,8.26
2022-10-17T21:41:54.106Z,8.19
2022-10-17T21:44:25.568Z,8.13
2022-10-17T21:46:55.974Z,8.08
2022-10-17T21:49:25.606Z,8.04
2022-10-17T21:51:54.214Z,8.02
2022-10-17T21:54:23.913Z,8.00
2022-10-17T21:56:53.009Z,8.00
2022-10-17T21:59:20.858Z,8.00
2022-10-17T22:01:48.898Z,8.00
2022-10-17T22:04:19.229Z,8.00
2022-10-17T22:06:51.385Z,7.98
2022-10-17T22:09:22.945Z,7.97
2022-10-17T22:11:54.070Z,7.98
2022-10-17T22:14:26.967Z,7.98
2022-10-17T22:16:55.362Z,7.97
2022-10-17T22:19:26.322Z,7.94
2022-10-17T22:21:55.198Z,7.88
2022-10-17T22:24:23.837Z,7.81
2022-10-17T22:26:52.041Z,7.73
2022-10-17T22:29:20.915Z,7.67
2022-10-17T22:31:49.341Z,7.61
2022-10-17T22:34:19.111Z,7.55
2022-10-17T22:36:48.966Z,7.48
2022-10-17T22:39:17.510Z,7.41
2022-10-17T22:41:45.691Z,7.37
2022-10-17T22:44:13.917Z,7.34
2022-10-17T22:46:42.109Z,7.33
2022-10-17T22:49:10.271Z,7.33
2022-10-17T22:51:38.558Z,7.34
2022-10-17T22:54:06.696Z,7.35
2022-10-17T22:56:35.227Z,7.36
2022-10-17T22:59:04.116Z,7.37
2022-10-17T23:01:32.648Z,7.36
2022-10-17T23:04:00.772Z,7.35
2022-10-17T23:06:28.732Z,7.36
2022-10-17T23:08:56.764Z,7.37
2022-10-17T23:11:24.849Z,7.39
2022-10-17T23:13:52.774Z,7.38
2022-10-17T23:16:20.767Z,7.36
2022-10-17T23:18:48.719Z,7.34
2022-10-17T23:21:16.634Z,7.32
2022-10-17T23:23:44.623Z,7.27
2022-10-17T23:26:14.345Z,7.22
2022-10-17T23:28:43.458Z,7.15
2022-10-17T23:31:14.412Z,7.09
2022-10-17T23:33:45.205Z,7.02
2022-10-17T23:36:16.050Z,6.97
2022-10-17T23:38:45.341Z,6.93
2022-10-17T23:41:14.058Z,6.90
2022-10-17T23:43:42.678Z,6.87
2022-10-17T23:46:11.531Z,6.85
2022-10-17T23:48:40.274Z,6.84
2022-10-17T23:51:09.941Z,6.86
2022-10-17T23:53:38.497Z,6.87
2022-10-17T23:56:08.097Z,6.84
2022-10-17T23:58:37.644Z,6.83
